createdAt,value
2022-09-12T00:01:42.411Z,17.62
2022-09-12T00:04:11.848Z,17.58
2022-09-12T00:06:40.289Z,17.47
2022-09-12T00:09:12.691Z,17.63
2022-09-12T00:11:46.652Z,17.66
2022-09-12T00:14:18.396Z,17.61
2022-09-12T00:16:46.962Z,17.59
2022-09-12T00:19:15.266Z,17.54
2022-09-12T00:21:43.479Z,17.55
2022-09-12T00:24:11.547Z,17.51
2022-09-12T00:26:40.206Z,17.48
2022-09-12T00:29:08.386Z,17.48
2022-09-12T00:31:36.755Z,17.45
2022-09-12T00:34:05.140Z,17.41
2022-09-12T00:36:33.400Z,17.39
2022-09-12T00:39:01.200Z,17.36
2022-09-12T00:41:37.593Z,17.30
2022-09-12T00:44:23.144Z,17.28
2022-09-12T00:47:14.381Z,17.28
2022-09-12T00:50:11.093Z,17.28
2022-09-12T00:52:52.571Z,17.21
2022-09-12T00:55:35.807Z,17.17
2022-09-12T00:58:20.851Z,17.16
2022-09-12T01:00:49.485Z,17.15
2022-09-12T01:03:22.411Z,17.12
2022-09-12T01:06:21.816Z,17.10
2022-09-12T01:08:51.416Z,17.08
2022-09-12T01:11:21.663Z,17.06
2022-09-12T01:13:50.880Z,17.03
2022-09-12T01:16:19.963Z,17.05
2022-09-12T01:19:12.665Z,17.04
2022-09-12T01:22:19.149Z,17.03
2022-09-12T01:25:48.789Z,17.02
2022-09-12T01:29:15.289Z,16.99
2022-09-12T01:31:52.379Z,16.95
2022-09-12T01:34:46.712Z,16.93
2022-09-12T01:37:31.468Z,16.90
2022-09-12T01:40:21.577Z,16.87
2022-09-12T01:43:17.603Z,16.82
2022-09-12T01:46:15.197Z,16.83
2022-09-12T01:48:57.213Z,16.79
2022-09-12T01:51:39.934Z,16.77
2022-09-12T01:54:40.338Z,16.79
2022-09-12T01:57:28.529Z,16.76
2022-09-12T02:00:06.876Z,16.71
2022-09-12T02:03:04.077Z,16.68
2022-09-12T02:05:37.832Z,16.67
2022-09-12T02:08:33.032Z,16.66
2022-09-12T02:11:08.535Z,16.62
2022-09-12T02:13:49.572Z,16.62
2022-09-12T02:16:40.729Z,16.61
2022-09-12T02:19:20.034Z,16.60
2022-09-12T02:22:05.348Z,16.58
2022-09-12T02:24:48.081Z,16.57
2022-09-12T02:27:30.010Z,16.56
2022-09-12T02:29:58.219Z,16.55
2022-09-12T02:32:49.459Z,16.52
2022-09-12T02:35:48.907Z,16.52
2022-09-12T02:38:47.095Z,16.47
2022-09-12T02:41:20.050Z,16.45
2022-09-12T02:43:50.551Z,16.44
2022-09-12T02:46:26.758Z,16.45
2022-09-12T02:48:55.854Z,16.43
2022-09-12T02:51:24.263Z,16.41
2022-09-12T02:53:53.373Z,16.40
2022-09-12T02:56:30.301Z,16.38
2022-09-12T02:59:07.524Z,16.37
2022-09-12T03:05:27.229Z,16.29
2022-09-12T03:08:20.533Z,16.31
2022-09-12T03:11:31.387Z,16.29
2022-09-12T03:14:12.177Z,16.30
2022-09-12T03:17:20.115Z,16.23
2022-09-12T03:20:31.908Z,16.21
2022-09-12T03:23:39.094Z,16.18
2022-09-12T03:26:17.050Z,16.14
2022-09-12T03:28:47.739Z,16.14
2022-09-12T03:31:18.975Z,16.08
2022-09-12T03:33:46.878Z,16.05
2022-09-12T03:36:27.509Z,16.07
2022-09-12T03:38:55.967Z,16.06
2022-09-12T03:41:24.156Z,16.02
2022-09-12T03:43:52.454Z,16.00
2022-09-12T03:46:20.614Z,16.01
2022-09-12T03:48:48.460Z,15.99
2022-09-12T03:51:16.926Z,15.97
2022-09-12T03:53:45.138Z,15.93
2022-09-12T03:56:13.832Z,15.91
2022-09-12T03:58:42.258Z,15.92
2022-09-12T04:01:16.622Z,15.90
2022-09-12T04:03:48.532Z,15.88
2022-09-12T04:06:21.604Z,15.84
2022-09-12T04:08:53.090Z,15.83
2022-09-12T04:11:23.099Z,15.80
2022-09-12T04:13:51.493Z,15.77
2022-09-12T04:16:21.201Z,15.76
2022-09-12T04:18:49.543Z,15.76
2022-09-12T04:21:21.738Z,15.72
2022-09-12T04:23:50.207Z,15.71
2022-09-12T04:26:20.802Z,15.68
2022-09-12T04:28:53.654Z,15.67
2022-09-12T04:31:22.654Z,15.62
2022-09-12T04:34:00.941Z,15.61
2022-09-12T04:36:29.800Z,15.59
2022-09-12T04:38:58.726Z,15.60
2022-09-12T04:41:31.935Z,15.57
2022-09-12T04:44:10.249Z,15.54
2022-09-12T04:46:43.487Z,15.52
2022-09-12T04:49:14.111Z,15.50
2022-09-12T04:51:43.528Z,15.50
2022-09-12T04:54:17.196Z,15.49
2022-09-12T04:56:48.863Z,15.47
2022-09-12T04:59:20.031Z,15.45
2022-09-12T05:01:48.408Z,15.49
2022-09-12T05:04:16.938Z,15.44
2022-09-12T05:06:47.331Z,15.44
2022-09-12T05:09:16.418Z,15.43
2022-09-12T05:14:34.533Z,15.42
2022-09-12T05:17:04.151Z,15.45
2022-09-12T05:19:32.947Z,15.46
2022-09-12T05:22:02.453Z,15.45
2022-09-12T05:24:30.613Z,15.46
2022-09-12T05:26:59.188Z,15.45
2022-09-12T05:29:27.500Z,15.48
2022-09-12T05:31:55.683Z,15.47
2022-09-12T05:34:23.961Z,15.50
2022-09-12T05:36:52.223Z,15.53
2022-09-12T05:39:20.640Z,15.51
2022-09-12T05:41:48.845Z,15.51
2022-09-12T05:44:17.759Z,15.53
2022-09-12T05:46:50.337Z,15.58
2022-09-12T05:49:18.744Z,15.61
2022-09-12T05:51:47.243Z,15.67
2022-09-12T05:54:19.324Z,15.67
2022-09-12T05:56:48.811Z,15.72
2022-09-12T05:59:21.732Z,15.77
2022-09-12T06:01:50.122Z,15.84
2022-09-12T06:04:18.384Z,15.89
2022-09-12T06:06:47.055Z,15.93
2022-09-12T06:09:18.344Z,16.06
2022-09-12T06:11:47.135Z,16.14
2022-09-12T06:14:17.665Z,16.17
2022-09-12T06:16:47.163Z,16.22
2022-09-12T06:19:21.847Z,16.30
2022-09-12T06:21:51.613Z,16.43
2022-09-12T06:24:21.142Z,16.47
2022-09-12T06:26:51.871Z,16.51
2022-09-12T06:29:20.450Z,16.62
2022-09-12T06:31:48.242Z,16.69
2022-09-12T06:36:48.915Z,16.93
2022-09-12T06:39:20.911Z,17.00
2022-09-12T06:41:51.638Z,17.09
2022-09-12T06:44:22.444Z,17.21
2022-09-12T06:46:50.877Z,17.33
2022-09-12T06:49:19.081Z,17.42
2022-09-12T06:51:46.850Z,17.54
2022-09-12T06:54:17.021Z,17.64
2022-09-12T06:56:45.791Z,17.74
2022-09-12T06:59:14.065Z,17.85
2022-09-12T07:01:42.636Z,18.00
2022-09-12T07:04:11.515Z,18.05
2022-09-12T07:06:42.096Z,18.21
2022-09-12T07:09:16.197Z,18.30
2022-09-12T07:11:46.393Z,18.42
2022-09-12T07:14:15.270Z,18.57
2022-09-12T07:16:43.665Z,18.71
2022-09-12T07:19:14.833Z,18.85
2022-09-12T07:21:42.576Z,19.06
2022-09-12T07:24:11.242Z,19.13
2022-09-12T07:26:41.832Z,19.25
2022-09-12T07:29:35.959Z,19.43
2022-09-12T07:32:05.817Z,19.53
2022-09-12T07:34:35.743Z,19.68
2022-09-12T07:37:04.487Z,19.84
2022-09-12T07:39:33.244Z,19.95
2022-09-12T07:42:01.664Z,20.06
2022-09-12T07:44:30.298Z,20.16
2022-09-12T07:46:58.500Z,20.32
2022-09-12T07:49:26.643Z,20.40
2022-09-12T07:51:56.567Z,20.54
2022-09-12T07:54:24.892Z,20.66
2022-09-12T07:56:53.139Z,20.83
2022-09-12T07:59:41.378Z,20.94
2022-09-12T08:02:17.338Z,21.04
2022-09-12T08:04:47.952Z,21.23
2022-09-12T08:07:17.999Z,21.35
2022-09-12T08:09:46.552Z,21.44
2022-09-12T08:12:16.538Z,21.40
2022-09-12T08:14:45.418Z,21.43
2022-09-12T08:17:14.369Z,21.57
2022-09-12T08:19:42.723Z,21.67
2022-09-12T08:22:11.510Z,21.90
2022-09-12T08:24:39.704Z,22.00
2022-09-12T08:27:08.450Z,22.18
2022-09-12T08:29:36.770Z,22.32
2022-09-12T08:32:05.131Z,22.45
2022-09-12T08:34:36.109Z,22.55
2022-09-12T08:37:04.411Z,22.68
2022-09-12T08:39:33.195Z,22.74
2022-09-12T08:42:06.706Z,22.91
2022-09-12T08:44:46.879Z,23.05
2022-09-12T08:47:23.864Z,23.23
2022-09-12T08:50:10.094Z,23.32
2022-09-12T08:53:05.011Z,23.51
2022-09-12T08:55:45.045Z,23.58
2022-09-12T08:58:24.755Z,23.79
2022-09-12T09:01:28.822Z,23.90
2022-09-12T09:04:48.230Z,24.11
2022-09-12T09:07:58.245Z,24.12
2022-09-12T09:11:13.851Z,24.29
2022-09-12T09:14:50.043Z,24.40
2022-09-12T09:17:46.561Z,24.08
2022-09-12T09:20:45.603Z,24.50
2022-09-12T09:23:20.237Z,24.31
2022-09-12T09:26:37.461Z,24.48
2022-09-12T09:29:20.157Z,24.52
2022-09-12T09:31:55.154Z,24.28
2022-09-12T09:34:30.042Z,24.24
2022-09-12T09:37:19.648Z,24.39
2022-09-12T09:40:27.546Z,24.50
2022-09-12T09:43:13.634Z,24.70
2022-09-12T09:45:44.599Z,24.88
2022-09-12T09:48:23.532Z,24.68
2022-09-12T09:50:52.291Z,24.75
2022-09-12T09:53:54.833Z,24.84
2022-09-12T09:56:37.069Z,25.00
2022-09-12T09:59:28.786Z,25.07
2022-09-12T10:02:24.201Z,25.20
2022-09-12T10:04:59.672Z,25.38
2022-09-12T10:07:28.179Z,25.48
2022-09-12T10:10:18.672Z,25.57
2022-09-12T10:12:47.011Z,25.92
2022-09-12T10:15:26.484Z,25.91
2022-09-12T10:17:59.598Z,26.01
2022-09-12T10:20:45.862Z,26.13
2022-09-12T10:23:30.660Z,26.10
2022-09-12T10:26:01.879Z,26.24
2022-09-12T10:28:54.978Z,26.24
2022-09-12T10:31:43.141Z,25.83
2022-09-12T10:34:33.424Z,25.98
2022-09-12T10:37:39.844Z,26.42
2022-09-12T10:40:26.483Z,26.71
2022-09-12T10:42:58.993Z,26.63
2022-09-12T10:45:35.664Z,27.06
2022-09-12T10:48:32.520Z,27.26
2022-09-12T10:51:01.459Z,27.36
2022-09-12T10:53:40.755Z,27.93
2022-09-12T10:56:23.085Z,27.88
2022-09-12T10:59:28.324Z,27.60
2022-09-12T11:02:22.087Z,26.93
2022-09-12T11:05:22.745Z,26.94
2022-09-12T11:09:04.446Z,27.37
2022-09-12T11:12:09.723Z,28.28
2022-09-12T11:15:03.491Z,28.12
2022-09-12T11:17:57.254Z,28.14
2022-09-12T11:20:54.345Z,28.45
2022-09-12T11:23:54.119Z,28.40
2022-09-12T11:26:40.700Z,28.60
2022-09-12T11:29:47.912Z,29.16
2022-09-12T11:33:05.507Z,29.29
2022-09-12T11:35:37.947Z,29.24
2022-09-12T11:39:03.783Z,28.72
2022-09-12T11:41:43.552Z,29.87
2022-09-12T11:44:20.854Z,30.56
2022-09-12T11:46:51.977Z,31.34
2022-09-12T11:49:49.711Z,32.05
2022-09-12T11:52:24.937Z,31.35
2022-09-12T11:55:12.054Z,31.82
2022-09-12T11:57:58.932Z,32.71
2022-09-12T12:00:53.358Z,33.55
2022-09-12T12:03:48.290Z,33.85
2022-09-12T12:07:06.032Z,32.55
2022-09-12T12:09:34.698Z,33.46
2022-09-12T12:12:08.401Z,33.84
2022-09-12T12:14:48.937Z,34.56
2022-09-12T12:17:21.637Z,34.15
2022-09-12T12:20:05.805Z,34.54
2022-09-12T12:22:36.051Z,35.18
2022-09-12T12:25:29.026Z,35.36
2022-09-12T12:28:06.193Z,35.30
2022-09-12T12:30:54.104Z,35.85
2022-09-12T12:33:22.263Z,36.13
2022-09-12T12:35:59.399Z,36.04
2022-09-12T12:38:41.268Z,36.35
2022-09-12T12:41:18.565Z,36.35
2022-09-12T12:43:52.475Z,36.22
2022-09-12T12:46:26.075Z,36.23
2022-09-12T12:49:24.495Z,-149.27
2022-09-12T12:52:01.476Z,-149.27
2022-09-12T12:54:42.019Z,-149.27
2022-09-12T12:57:41.202Z,-149.27
2022-09-12T13:00:29.913Z,-149.27
2022-09-12T13:03:30.327Z,36.23
2022-09-12T13:06:41.140Z,36.23
2022-09-12T13:09:28.801Z,35.33
2022-09-12T13:12:08.751Z,35.73
2022-09-12T13:14:42.866Z,36.67
2022-09-12T13:17:44.276Z,36.95
2022-09-12T13:20:33.070Z,34.54
2022-09-12T13:23:01.815Z,35.06
2022-09-12T13:25:37.170Z,35.76
2022-09-12T13:28:18.604Z,36.35
2022-09-12T13:31:15.969Z,36.46
2022-09-12T13:33:54.390Z,36.17
2022-09-12T13:37:18.620Z,36.17
2022-09-12T13:40:05.571Z,34.51
2022-09-12T13:42:50.028Z,35.90
2022-09-12T13:45:29.635Z,35.58
2022-09-12T13:48:02.093Z,35.59
2022-09-12T13:50:46.545Z,34.99
2022-09-12T13:53:19.809Z,35.15
2022-09-12T13:55:59.851Z,34.64
2022-09-12T13:58:34.414Z,34.54
2022-09-12T14:01:05.413Z,34.14
2022-09-12T14:04:00.719Z,34.21
2022-09-12T14:06:29.497Z,34.58
2022-09-12T14:09:00.163Z,33.99
2022-09-12T14:11:33.820Z,34.63
2022-09-12T14:14:07.234Z,34.95
2022-09-12T14:16:40.287Z,35.53
2022-09-12T14:19:12.245Z,34.88
2022-09-12T14:21:40.636Z,34.35
2022-09-12T14:24:12.496Z,33.78
2022-09-12T14:26:42.917Z,33.00
2022-09-12T14:29:16.705Z,33.26
2022-09-12T14:31:50.842Z,33.38
2022-09-12T14:34:19.804Z,33.54
2022-09-12T14:36:55.904Z,34.03
2022-09-12T14:39:37.876Z,34.17
2022-09-12T14:42:22.052Z,33.84
2022-09-12T14:45:01.812Z,34.68
2022-09-12T14:47:40.307Z,34.42
2022-09-12T14:50:22.774Z,34.58
2022-09-12T14:53:25.788Z,33.66
2022-09-12T14:56:22.553Z,33.71
2022-09-12T14:58:50.983Z,33.72
2022-09-12T15:01:19.054Z,33.74
2022-09-12T15:03:49.981Z,33.32
2022-09-12T15:06:47.489Z,32.61
2022-09-12T15:09:15.806Z,32.65
2022-09-12T15:11:43.949Z,32.30
2022-09-12T15:14:15.847Z,33.18
2022-09-12T15:16:44.080Z,33.52
2022-09-12T15:19:12.328Z,33.41
2022-09-12T15:21:40.537Z,32.98
2022-09-12T15:24:09.202Z,32.58
2022-09-12T15:26:37.487Z,33.42
2022-09-12T15:29:05.718Z,33.47
2022-09-12T15:31:33.903Z,33.75
2022-09-12T15:34:03.205Z,33.22
2022-09-12T15:36:31.470Z,33.49
2022-09-12T15:38:59.646Z,32.83
2022-09-12T15:41:36.717Z,32.21
2022-09-12T15:44:07.887Z,32.17
2022-09-12T15:46:36.166Z,32.02
2022-09-12T15:49:04.429Z,31.73
2022-09-12T15:51:32.931Z,31.56
2022-09-12T15:54:04.655Z,31.05
2022-09-12T15:56:32.967Z,31.32
2022-09-12T15:59:01.181Z,31.26
2022-09-12T16:01:29.620Z,31.10
2022-09-12T16:03:58.048Z,30.54
2022-09-12T16:06:27.096Z,29.70
2022-09-12T16:08:55.353Z,30.50
2022-09-12T16:11:27.012Z,30.64
2022-09-12T16:13:56.790Z,30.34
2022-09-12T16:16:35.060Z,30.32
2022-09-12T16:19:04.005Z,30.38
2022-09-12T16:21:32.461Z,30.49
2022-09-12T16:24:00.952Z,30.57
2022-09-12T16:26:29.149Z,30.64
2022-09-12T16:29:00.809Z,30.46
2022-09-12T16:31:29.434Z,30.02
2022-09-12T16:33:57.665Z,30.17
2022-09-12T16:36:28.193Z,30.05
2022-09-12T16:38:56.409Z,30.30
2022-09-12T16:41:25.377Z,30.56
2022-09-12T16:43:54.142Z,30.40
2022-09-12T16:46:30.513Z,30.44
2022-09-12T16:48:59.401Z,30.32
2022-09-12T16:51:33.031Z,30.04
2022-09-12T16:54:01.512Z,30.33
2022-09-12T16:56:30.082Z,30.02
2022-09-12T16:58:58.409Z,29.70
2022-09-12T17:01:27.142Z,29.79
2022-09-12T17:03:58.069Z,30.05
2022-09-12T17:06:27.723Z,30.20
2022-09-12T17:09:04.149Z,30.15
2022-09-12T17:11:38.865Z,30.04
2022-09-12T17:14:08.970Z,29.68
2022-09-12T17:17:11.756Z,29.81
2022-09-12T17:19:40.242Z,29.66
2022-09-12T17:22:08.423Z,29.41
2022-09-12T17:24:36.606Z,28.97
2022-09-12T17:27:04.869Z,28.86
2022-09-12T17:29:34.966Z,28.04
2022-09-12T17:32:03.374Z,28.40
2022-09-12T17:34:31.793Z,27.85
2022-09-12T17:36:59.975Z,27.90
2022-09-12T17:39:28.266Z,28.03
2022-09-12T17:41:57.675Z,28.03
2022-09-12T17:44:25.932Z,27.77
2022-09-12T17:46:54.134Z,27.09
2022-09-12T17:49:28.196Z,27.22
2022-09-12T17:51:56.388Z,27.45
2022-09-12T17:54:24.763Z,27.46
2022-09-12T17:56:52.963Z,27.37
2022-09-12T17:59:24.619Z,27.19
2022-09-12T18:02:11.203Z,27.12
2022-09-12T18:04:41.068Z,26.97
2022-09-12T18:07:09.352Z,26.83
2022-09-12T18:09:37.711Z,26.54
2022-09-12T18:12:07.719Z,26.49
2022-09-12T18:14:36.297Z,26.32
2022-09-12T18:17:06.947Z,26.29
2022-09-12T18:19:35.669Z,26.11
2022-09-12T18:22:09.553Z,25.97
2022-09-12T18:24:37.767Z,25.85
2022-09-12T18:27:05.955Z,25.74
2022-09-12T18:30:10.420Z,25.62
2022-09-12T18:32:37.555Z,25.48
2022-09-12T18:35:06.798Z,25.35
2022-09-12T18:37:34.955Z,25.23
2022-09-12T18:40:04.221Z,25.10
2022-09-12T18:42:32.556Z,24.96
2022-09-12T18:45:00.716Z,24.75
2022-09-12T18:47:28.942Z,24.73
2022-09-12T18:49:57.151Z,24.66
2022-09-12T18:52:25.319Z,24.54
2022-09-12T18:54:53.540Z,24.44
2022-09-12T18:57:21.732Z,24.34
2022-09-12T18:59:49.964Z,24.20
2022-09-12T19:02:18.164Z,24.09
2022-09-12T19:04:46.460Z,23.96
2022-09-12T19:07:16.848Z,23.81
2022-09-12T19:09:45.028Z,23.76
2022-09-12T19:12:13.201Z,23.71
2022-09-12T19:14:41.397Z,23.51
2022-09-12T19:17:10.051Z,23.49
2022-09-12T19:19:40.557Z,23.44
2022-09-12T19:22:08.945Z,23.38
2022-09-12T19:24:37.155Z,23.29
2022-09-12T19:27:05.614Z,23.18
2022-09-12T19:29:33.777Z,23.09
2022-09-12T19:32:08.705Z,23.00
2022-09-12T19:34:37.024Z,22.92
2022-09-12T19:37:05.227Z,22.86
2022-09-12T19:39:34.367Z,22.78
2022-09-12T19:42:02.586Z,22.69
2022-09-12T19:44:30.971Z,22.61
2022-09-12T19:46:59.263Z,22.52
2022-09-12T19:49:27.428Z,22.44
2022-09-12T19:51:55.635Z,22.38
2022-09-12T19:54:23.832Z,22.32
2022-09-12T19:56:52.245Z,22.27
2022-09-12T19:59:20.615Z,22.20
2022-09-12T20:01:51.993Z,22.16
2022-09-12T20:04:20.223Z,22.10
2022-09-12T20:06:48.401Z,22.03
2022-09-12T20:09:16.639Z,21.96
2022-09-12T20:11:44.993Z,21.92
2022-09-12T20:14:13.267Z,21.87
2022-09-12T20:16:41.469Z,21.82
2022-09-12T20:19:09.988Z,21.78
2022-09-12T20:21:38.300Z,21.73
2022-09-12T20:24:11.860Z,21.67
2022-09-12T20:26:40.557Z,21.62
2022-09-12T20:29:09.988Z,21.38
2022-09-12T20:31:40.989Z,21.47
2022-09-12T20:34:17.282Z,21.45
2022-09-12T20:36:46.504Z,21.41
2022-09-12T20:39:22.167Z,21.36
2022-09-12T20:41:50.576Z,21.32
2022-09-12T20:44:18.948Z,21.26
2022-09-12T20:46:47.169Z,21.21
2022-09-12T20:49:15.341Z,21.15
2022-09-12T20:51:43.371Z,21.14
2022-09-12T20:54:11.842Z,21.11
2022-09-12T20:56:40.052Z,21.10
2022-09-12T20:59:11.201Z,21.07
2022-09-12T21:01:39.675Z,21.03
2022-09-12T21:04:10.711Z,21.00
2022-09-12T21:06:41.216Z,20.95
2022-09-12T21:09:09.410Z,20.92
2022-09-12T21:11:37.629Z,20.92
2022-09-12T21:14:05.875Z,20.89
2022-09-12T21:16:38.497Z,20.85
2022-09-12T21:19:06.911Z,20.82
2022-09-12T21:22:00.847Z,20.80
2022-09-12T21:24:29.536Z,20.74
2022-09-12T21:27:02.176Z,20.72
2022-09-12T21:29:32.264Z,20.69
2022-09-12T21:32:00.493Z,20.67
2022-09-12T21:34:28.686Z,20.65
2022-09-12T21:36:56.828Z,20.62
2022-09-12T21:39:25.198Z,20.59
2022-09-12T21:41:53.698Z,20.54
2022-09-12T21:44:22.220Z,20.42
2022-09-12T21:46:50.510Z,20.46
2022-09-12T21:49:18.890Z,20.45
2022-09-12T21:51:47.104Z,20.43
2022-09-12T21:54:15.306Z,20.52
2022-09-12T21:56:43.565Z,20.42
2022-09-12T21:59:11.802Z,20.39
2022-09-12T22:01:41.069Z,20.24
2022-09-12T22:04:11.430Z,20.22
2022-09-12T22:06:39.737Z,20.21
2022-09-12T22:09:07.912Z,20.18
2022-09-12T22:11:36.082Z,20.15
2022-09-12T22:14:04.563Z,20.09
2022-09-12T22:16:33.715Z,20.05
2022-09-12T22:19:01.980Z,20.00
2022-09-12T22:21:31.286Z,19.97
2022-09-12T22:24:17.769Z,19.91
2022-09-12T22:26:46.485Z,19.88
2022-09-12T22:29:14.798Z,19.86
2022-09-12T22:31:43.130Z,19.83
2022-09-12T22:34:11.493Z,19.81
2022-09-12T22:36:39.966Z,19.81
2022-09-12T22:39:08.562Z,19.79
2022-09-12T22:41:43.948Z,19.80
2022-09-12T22:44:12.248Z,19.78
2022-09-12T22:46:40.698Z,19.77
2022-09-12T22:49:08.963Z,19.76
2022-09-12T22:51:37.391Z,19.75
2022-09-12T22:54:05.972Z,19.76
2022-09-12T22:56:34.364Z,19.77
2022-09-12T22:59:02.475Z,19.77
2022-09-12T23:01:31.790Z,19.76
2022-09-12T23:04:00.299Z,19.77
2022-09-12T23:06:28.549Z,19.78
2022-09-12T23:08:56.692Z,19.77
2022-09-12T23:11:24.953Z,19.78
2022-09-12T23:13:53.339Z,19.80
2022-09-12T23:16:25.565Z,19.81
2022-09-12T23:18:53.997Z,19.83
2022-09-12T23:21:22.505Z,19.84
2022-09-12T23:23:51.153Z,19.85
2022-09-12T23:26:23.994Z,19.86
2022-09-12T23:28:59.732Z,19.86
2022-09-12T23:31:31.958Z,19.91
2022-09-12T23:34:05.739Z,19.87
2022-09-12T23:36:34.331Z,20.10
2022-09-12T23:39:02.940Z,20.17
2022-09-12T23:41:31.416Z,20.23
2022-09-12T23:43:59.285Z,20.31
2022-09-12T23:46:27.554Z,20.40
2022-09-12T23:48:55.729Z,20.44
2022-09-12T23:51:23.871Z,20.47
2022-09-12T23:53:52.280Z,20.55
2022-09-12T23:56:22.012Z,20.58
2022-09-12T23:58:50.299Z,20.62
